Terminal Aerodrome Forecast
Issued by NWS Sterling, VA

Home | Current Version | Previous Version | Text Only | Print | Product List | Glossary On
Versions: 1 2 3 4 5 6 7 8 9 10 11 12 13 14
000
FTUS41 KLWX 292340
TAFCHO
TAF
KCHO 292340Z 3000/3024 19004KT P6SM BKN080
     FM300200 00000KT P6SM BKN080
     FM300800 00000KT 3SM BR BKN250
     FM301300 19004KT P6SM SCT120
     FM301600 19006KT P6SM BKN060
     FM301900 20010KT P6SM BKN060
     FM302300 20006KT P6SM SCT060=

USA.gov is the U.S. government's official web portal to all federal, state and local government web resources and services.